Time;durP1;ratioP1;P1;durP2;ratioP2;P2;SDS_P1;SDS_P2;PMS_P1;PMS_P2;Temp;Humidity;BMP_temperature;BMP_pressure;BME280_temperature;BME280_humidity;BME280_pressure;Samples;Min_cycle;Max_cycle;Signal;HPM_P1;HPM_P2
2022/02/16 00:04:23;;;;;;;;;;;;;;;4.30;73.56;98424.32;218633;1277;22693;-68
2022/02/16 00:10:07;;;;;;;;;;;;;;;4.26;73.54;98422.92;218560;1278;25450;-67
2022/02/16 00:15:26;;;;;;;;;;;;;;;4.24;73.69;98425.60;218665;1277;22538;-68
2022/02/16 00:21:07;;;;;;;;;;;;;;;4.19;73.76;98422.98;218655;1278;24382;-68
2022/02/16 00:26:34;;;;;;;;;;;;;;;4.13;73.91;98413.29;218520;1278;25361;-67
2022/02/16 00:31:54;;;;;;;;;;;;;;;4.10;74.07;98409.98;218587;1279;22943;-67
2022/02/16 00:37:41;;;;;;;;;;;;;;;;;;;;;
2022/02/16 00:43:12;;;;;;;;;;;;;;;4.12;74.36;98386.61;218614;1279;22546;-67
2022/02/16 00:48:27;;;;;;;;;;;;;;;4.13;74.46;98375.37;218702;1279;24291;-67
2022/02/16 00:54:48;;;;;;;;;;;;;;;4.12;74.55;98372.13;218815;1279;22627;-68
2022/02/16 01:00:17;;;;;;;;;;;;;;;4.07;74.42;98377.45;218880;1279;22536;-67
2022/02/16 01:06:15;;;;;;;;;;;;;;;;;;;;;
2022/02/16 01:11:53;;;;;;;;;;;;;;;3.84;74.21;98351.59;218915;1279;24581;-67
2022/02/16 01:17:48;;;;;;;;;;;;;;;3.70;74.52;98344.34;218416;1279;25257;-67
2022/02/16 01:23:50;;;;;;;;;;;;;;;3.60;74.81;98352.19;218794;1279;22564;-68
2022/02/16 01:29:29;;;;;;;;;;;;;;;;;;;;;
2022/02/16 01:35:24;;;;;;;;;;;;;;;3.67;75.35;98339.28;218679;1279;22955;-68
2022/02/16 01:41:08;;;;;;;;;;;;;;;3.72;75.11;98320.98;218625;1278;22554;-66
2022/02/16 01:46:34;;;;;;;;;;;;;;;3.71;75.12;98321.41;218569;1281;23802;-67
2022/02/16 01:51:57;;;;;;;;;;;;;;;3.71;75.16;98322.46;218666;1278;22644;-68
2022/02/16 01:57:27;;;;;;;;;;;;;;;;;;;;;
2022/02/16 02:03:02;;;;;;;;;;;;;;;3.64;74.84;98312.34;218864;1278;24419;-68
2022/02/16 02:09:02;;;;;;;;;;;;;;;3.51;74.86;98318.55;218585;1278;22532;-67
2022/02/16 02:14:28;;;;;;;;;;;;;;;3.38;74.99;98317.23;218691;1279;22548;-69
2022/02/16 02:20:00;;;;;;;;;;;;;;;3.26;75.05;98318.45;218668;1278;22553;-67
2022/02/16 02:26:02;;;;;;;;;;;;;;;;;;;;;
2022/02/16 02:31:34;;;;;;;;;;;;;;;3.06;75.22;98299.65;218611;1278;25912;-68
2022/02/16 02:37:22;;;;;;;;;;;;;;;;;;;;;
2022/02/16 02:43:13;;;;;;;;;;;;;;;2.90;75.60;98298.80;218801;1278;22528;-68
2022/02/16 02:48:44;;;;;;;;;;;;;;;2.85;75.71;98297.59;218833;1278;22675;-68
2022/02/16 02:53:47;;;;;;;;;;;;;;;2.80;75.87;98291.50;218719;1278;22645;-67
2022/02/16 02:59:41;;;;;;;;;;;;;;;2.69;75.81;98296.10;218618;1277;22570;-69
2022/02/16 03:04:54;;;;;;;;;;;;;;;2.62;76.14;98296.77;218773;1277;24303;-68
2022/02/16 03:10:11;;;;;;;;;;;;;;;2.59;76.27;98299.01;218683;1279;24267;-69
2022/02/16 03:15:24;;;;;;;;;;;;;;;2.54;76.47;98292.87;218717;1278;24253;-69
2022/02/16 03:20:53;;;;;;;;;;;;;;;;;;;;;
2022/02/16 03:26:16;;;;;;;;;;;;;;;2.46;76.97;98281.51;218550;1279;24438;-68
2022/02/16 03:31:42;;;;;;;;;;;;;;;2.48;77.58;98284.98;218608;1279;25478;-68
2022/02/16 03:37:36;;;;;;;;;;;;;;;2.51;77.40;98282.83;218637;1279;22861;-68
2022/02/16 03:42:57;;;;;;;;;;;;;;;;;;;;;
2022/02/16 03:48:30;;;;;;;;;;;;;;;2.66;78.17;98278.55;218599;1279;22719;-68
2022/02/16 03:54:35;;;;;;;;;;;;;;;2.79;78.25;98274.56;218734;1279;22557;-68
2022/02/16 04:00:13;;;;;;;;;;;;;;;2.91;78.30;98269.81;218611;1279;22569;-66
2022/02/16 04:06:10;;;;;;;;;;;;;;;;;;;;;
2022/02/16 04:12:10;;;;;;;;;;;;;;;3.13;78.46;98256.19;218551;1281;24255;-68
2022/02/16 04:17:54;;;;;;;;;;;;;;;3.26;78.25;98259.52;218537;1281;25441;-67
2022/02/16 04:22:57;;;;;;;;;;;;;;;3.32;77.97;98261.42;218611;1281;22578;-68
2022/02/16 04:28:02;;;;;;;;;;;;;;;3.32;77.85;98258.83;218559;1278;22553;-68
2022/02/16 04:33:44;;;;;;;;;;;;;;;3.29;77.78;98256.59;218568;1277;22557;-68
2022/02/16 04:39:18;;;;;;;;;;;;;;;3.31;78.05;98254.64;218687;1277;23344;-68
2022/02/16 04:44:57;;;;;;;;;;;;;;;3.42;78.89;98258.89;218624;1277;24289;-68
2022/02/16 04:56:40;;;;;;;;;;;;;;;3.66;78.60;98246.94;218426;1277;22547;-68
2022/02/16 05:02:44;;;;;;;;;;;;;;;3.68;78.28;98243.92;218490;1277;22697;-67
2022/02/16 05:08:40;;;;;;;;;;;;;;;;;;;;;
2022/02/16 05:14:26;;;;;;;;;;;;;;;3.65;78.36;98231.77;218589;1277;26385;-68
2022/02/16 05:20:07;;;;;;;;;;;;;;;3.65;78.55;98232.78;218560;1278;22528;-67
2022/02/16 05:25:54;;;;;;;;;;;;;;;3.65;78.62;98236.59;218446;1278;22648;-66
2022/02/16 05:31:12;;;;;;;;;;;;;;;3.65;78.66;98235.21;219045;1277;22554;-68
2022/02/16 05:36:16;;;;;;;;;;;;;;;3.61;78.72;98235.03;218889;1277;22683;-67
2022/02/16 05:41:43;;;;;;;;;;;;;;;3.56;78.61;98234.69;218824;1277;22541;-69
2022/02/16 05:47:09;;;;;;;;;;;;;;;3.50;78.50;98238.77;218668;1278;22746;-69
2022/02/16 05:52:19;;;;;;;;;;;;;;;3.43;78.44;98241.11;218725;1277;22561;-68
2022/02/16 05:57:32;;;;;;;;;;;;;;;3.36;78.40;98230.31;218728;1278;22528;-69
2022/02/16 06:02:38;;;;;;;;;;;;;;;3.30;78.61;98225.45;218718;1277;24576;-67
2022/02/16 06:08:02;;;;;;;;;;;;;;;3.23;78.57;98219.48;218797;1277;22535;-68
2022/02/16 06:13:49;;;;;;;;;;;;;;;3.18;78.39;98215.89;218757;1277;24752;-67
2022/02/16 06:19:05;;;;;;;;;;;;;;;3.15;78.74;98213.59;218612;1277;22715;-68
2022/02/16 06:24:14;;;;;;;;;;;;;;;3.13;78.58;98207.33;218624;1277;24994;-68
2022/02/16 06:29:29;;;;;;;;;;;;;;;3.12;78.93;98205.21;218439;1279;25467;-68
2022/02/16 06:34:51;;;;;;;;;;;;;;;3.13;78.94;98206.20;218459;1281;22556;-68
2022/02/16 06:39:56;;;;;;;;;;;;;;;3.16;78.91;98199.36;218579;1279;22557;-68
2022/02/16 06:45:00;;;;;;;;;;;;;;;3.24;78.79;98188.66;218289;1280;22644;-68
2022/02/16 06:50:16;;;;;;;;;;;;;;;3.38;79.02;98180.66;218246;1277;22602;-69
2022/02/16 06:55:27;;;;;;;;;;;;;;;3.63;78.91;98178.89;218353;1277;22543;-67
2022/02/16 07:00:41;;;;;;;;;;;;;;;3.95;78.59;98174.84;218203;1277;25248;-68
2022/02/16 07:05:55;;;;;;;;;;;;;;;4.23;77.92;98177.91;218313;1277;24310;-68
2022/02/16 07:11:05;;;;;;;;;;;;;;;4.45;77.32;98174.25;218000;1276;22590;-68
2022/02/16 07:16:25;;;;;;;;;;;;;;;4.62;77.04;98166.73;218116;1277;23918;-68
2022/02/16 07:21:31;;;;;;;;;;;;;;;4.80;76.64;98157.61;218120;1277;22556;-67
2022/02/16 07:26:35;;;;;;;;;;;;;;;4.91;76.21;98156.81;218139;1277;22586;-69
2022/02/16 07:31:40;;;;;;;;;;;;;;;4.93;75.82;98157.77;218065;1277;23588;-69
2022/02/16 07:37:01;;;;;;;;;;;;;;;4.94;75.78;98146.15;217861;1277;23819;-67
2022/02/16 07:42:04;;;;;;;;;;;;;;;4.99;75.44;98140.67;218198;1277;22943;-68
2022/02/16 07:47:25;;;;;;;;;;;;;;;5.07;75.44;98129.10;218113;1276;22716;-68
2022/02/16 07:52:55;;;;;;;;;;;;;;;5.18;74.96;98130.35;217980;1277;22597;-68
2022/02/16 07:58:19;;;;;;;;;;;;;;;5.31;74.49;98116.61;217434;1276;23073;-68
2022/02/16 08:03:21;;;;;;;;;;;;;;;5.44;73.63;98117.59;218232;1277;22556;-67
2022/02/16 08:08:31;;;;;;;;;;;;;;;5.58;72.74;98103.95;218285;1277;24811;-69
2022/02/16 08:13:46;;;;;;;;;;;;;;;5.70;72.44;98099.59;218088;1277;22561;-68
2022/02/16 08:18:57;;;;;;;;;;;;;;;5.86;71.56;98101.64;218237;1277;22570;-68
2022/02/16 08:24:18;;;;;;;;;;;;;;;6.01;70.45;98105.67;217937;1277;25405;-68
2022/02/16 08:29:26;;;;;;;;;;;;;;;6.15;70.20;98105.29;217843;1277;24234;-67
2022/02/16 08:34:37;;;;;;;;;;;;;;;6.30;68.65;98102.46;217819;1277;25374;-67
2022/02/16 08:39:46;;;;;;;;;;;;;;;6.43;68.15;98091.42;217842;1277;24318;-66
2022/02/16 08:44:50;;;;;;;;;;;;;;;6.57;68.66;98085.57;218199;1277;22561;-67
2022/02/16 08:49:56;;;;;;;;;;;;;;;6.67;67.10;98075.70;218347;1277;22592;-67
2022/02/16 08:55:12;;;;;;;;;;;;;;;6.75;67.41;98060.88;218168;1277;24152;-68
2022/02/16 09:00:34;;;;;;;;;;;;;;;6.85;65.95;98057.05;217942;1277;24253;-67
2022/02/16 09:05:37;;;;;;;;;;;;;;;6.90;64.81;98049.83;217930;1276;22558;-68
2022/02/16 09:10:41;;;;;;;;;;;;;;;6.98;65.18;98045.05;217931;1277;22548;-67
2022/02/16 09:15:44;;;;;;;;;;;;;;;7.10;65.24;98042.81;217941;1276;25243;-67
2022/02/16 09:20:47;;;;;;;;;;;;;;;7.18;65.20;98036.86;217899;1277;22577;-67
2022/02/16 09:25:53;;;;;;;;;;;;;;;7.28;64.13;98034.51;218040;1277;22623;-66
2022/02/16 09:30:56;;;;;;;;;;;;;;;7.35;62.34;98031.91;217644;1277;22840;-68
2022/02/16 09:35:58;;;;;;;;;;;;;;;7.37;61.20;98030.03;217726;1277;25464;-68
2022/02/16 09:41:06;;;;;;;;;;;;;;;7.36;61.59;98016.45;217944;1276;23300;-68
2022/02/16 09:46:08;;;;;;;;;;;;;;;7.47;62.64;98010.55;217398;1277;24518;-68
2022/02/16 09:51:14;;;;;;;;;;;;;;;7.57;61.40;98005.74;217839;1277;25375;-68
2022/02/16 09:56:19;;;;;;;;;;;;;;;7.61;61.28;98006.23;217996;1277;25624;-68
2022/02/16 10:01:21;;;;;;;;;;;;;;;7.66;61.21;97997.19;217936;1277;24154;-69
2022/02/16 10:06:40;;;;;;;;;;;;;;;7.77;61.55;97981.20;218390;1277;22577;-68
2022/02/16 10:11:55;;;;;;;;;;;;;;;7.94;60.83;97976.73;218563;1277;22556;-69
2022/02/16 10:17:04;;;;;;;;;;;;;;;8.03;59.05;97978.41;218445;1276;24799;-70
2022/02/16 10:22:08;;;;;;;;;;;;;;;8.03;58.70;97966.23;218772;1277;25216;-69
2022/02/16 10:27:14;;;;;;;;;;;;;;;8.14;59.44;97959.95;217856;1277;23170;-69
2022/02/16 10:32:32;;;;;;;;;;;;;;;8.23;58.52;97947.68;218139;1276;22753;-69
2022/02/16 10:37:37;;;;;;;;;;;;;;;8.26;58.68;97943.25;217950;1277;25307;-69
2022/02/16 10:42:52;;;;;;;;;;;;;;;8.32;58.68;97926.25;218249;1277;24385;-69
2022/02/16 10:48:02;;;;;;;;;;;;;;;8.39;58.76;97913.31;218119;1276;22556;-69
2022/02/16 10:53:07;;;;;;;;;;;;;;;8.36;57.89;97919.23;218046;1277;25227;-69
2022/02/16 10:58:18;;;;;;;;;;;;;;;8.29;56.36;97904.77;218263;1276;24813;-67
2022/02/16 11:03:44;;;;;;;;;;;;;;;8.29;56.68;97882.91;217945;1277;22898;-69
2022/02/16 11:08:46;;;;;;;;;;;;;;;8.38;57.67;97876.66;217812;1277;302057;-69
2022/02/16 11:13:58;;;;;;;;;;;;;;;8.47;56.73;97861.30;217845;1277;22952;-69
2022/02/16 11:19:18;;;;;;;;;;;;;;;8.51;55.15;97855.30;218502;1277;22562;-70
2022/02/16 11:24:27;;;;;;;;;;;;;;;8.46;54.97;97838.00;217815;1277;22891;-70
2022/02/16 11:29:37;;;;;;;;;;;;;;;8.54;55.76;97817.02;218608;1277;22551;-68
2022/02/16 11:35:06;;;;;;;;;;;;;;;8.68;55.33;97802.05;217944;1277;24248;-68
2022/02/16 11:40:48;;;;;;;;;;;;;;;8.78;54.08;97787.79;218865;1277;25262;-68
2022/02/16 11:45:58;;;;;;;;;;;;;;;8.92;54.76;97776.54;218056;1277;24351;-69
2022/02/16 11:51:22;;;;;;;;;;;;;;;9.06;54.70;97765.14;218168;1279;22535;-69
2022/02/16 11:56:35;;;;;;;;;;;;;;;9.15;53.22;97760.63;218129;1277;22588;-69
2022/02/16 12:01:59;;;;;;;;;;;;;;;9.24;51.18;97758.48;217875;1277;22579;-70
2022/02/16 12:07:24;;;;;;;;;;;;;;;9.35;50.81;97754.00;217905;1277;24253;-69
2022/02/16 12:12:30;;;;;;;;;;;;;;;9.43;50.17;97747.95;218165;1277;25393;-68
2022/02/16 12:17:41;;;;;;;;;;;;;;;9.49;50.30;97741.16;217950;1277;22563;-68
2022/02/16 12:22:50;;;;;;;;;;;;;;;9.60;49.08;97736.59;217962;1277;22614;-69
2022/02/16 12:27:59;;;;;;;;;;;;;;;9.68;49.54;97733.66;218042;1277;22562;-68
2022/02/16 12:33:17;;;;;;;;;;;;;;;9.77;48.32;97732.42;218193;1278;22531;-69
2022/02/16 12:38:27;;;;;;;;;;;;;;;9.81;48.17;97722.95;218546;1277;22546;-69
2022/02/16 12:43:31;;;;;;;;;;;;;;;9.82;48.53;97720.83;218031;1277;22536;-69
2022/02/16 12:48:46;;;;;;;;;;;;;;;9.90;49.17;97722.51;217923;1278;24358;-69
2022/02/16 12:53:57;;;;;;;;;;;;;;;10.04;49.64;97715.36;218750;1277;24387;-69
2022/02/16 12:59:21;;;;;;;;;;;;;;;10.09;49.31;97702.80;219103;1277;22554;-69
2022/02/16 13:04:24;;;;;;;;;;;;;;;10.01;48.60;97678.25;218101;1277;24783;-67
2022/02/16 13:09:27;;;;;;;;;;;;;;;9.97;49.72;97663.66;218143;1278;22562;-68
2022/02/16 13:14:31;;;;;;;;;;;;;;;10.04;50.15;97649.42;218017;1277;22484;-68
2022/02/16 13:19:44;;;;;;;;;;;;;;;10.14;50.05;97633.03;218101;1277;22544;-68
2022/02/16 13:24:49;;;;;;;;;;;;;;;10.15;49.58;97617.64;217554;1277;23134;-68
2022/02/16 13:29:59;;;;;;;;;;;;;;;9.98;49.25;97604.50;218427;1277;22715;-68
2022/02/16 13:35:13;;;;;;;;;;;;;;;9.83;49.75;97598.09;218037;1278;23974;-68
2022/02/16 13:40:18;;;;;;;;;;;;;;;9.85;50.73;97590.59;217842;1277;22591;-69
2022/02/16 13:45:33;;;;;;;;;;;;;;;10.00;50.15;97587.59;217927;1278;25337;-66
2022/02/16 13:50:41;;;;;;;;;;;;;;;10.10;50.84;97580.48;217794;1278;22698;-69
2022/02/16 13:55:46;;;;;;;;;;;;;;;10.18;50.73;97580.30;218025;1278;22695;-68
2022/02/16 14:01:00;;;;;;;;;;;;;;;10.21;50.65;97569.95;218714;1277;22543;-68
2022/02/16 14:06:23;;;;;;;;;;;;;;;10.15;50.21;97547.81;217594;1276;22535;-68
2022/02/16 14:11:32;;;;;;;;;;;;;;;9.92;50.22;97535.21;218016;1278;22571;-68
2022/02/16 14:16:38;;;;;;;;;;;;;;;9.71;50.53;97511.79;218153;1277;22529;-69
2022/02/16 14:21:40;;;;;;;;;;;;;;;9.56;51.30;97500.83;217997;1278;22740;-68
2022/02/16 14:26:46;;;;;;;;;;;;;;;9.45;50.91;97496.12;217946;1277;25056;-68
2022/02/16 14:31:52;;;;;;;;;;;;;;;9.33;51.08;97489.15;217773;1278;24268;-69
2022/02/16 14:37:18;;;;;;;;;;;;;;;9.20;51.41;97474.59;218061;1277;22580;-68
2022/02/16 14:42:24;;;;;;;;;;;;;;;9.15;51.43;97457.92;218013;1277;22725;-69
2022/02/16 14:47:39;;;;;;;;;;;;;;;9.19;51.56;97443.16;219106;1279;22531;-69
2022/02/16 14:52:45;;;;;;;;;;;;;;;9.30;51.06;97434.20;218724;1278;22558;-69
2022/02/16 14:58:16;;;;;;;;;;;;;;;9.33;51.10;97423.73;218199;1277;23800;-68
2022/02/16 15:03:22;;;;;;;;;;;;;;;9.31;51.07;97423.41;218033;1277;22573;-67
2022/02/16 15:08:30;;;;;;;;;;;;;;;9.29;50.79;97406.59;217824;1277;22741;-68
2022/02/16 15:13:34;;;;;;;;;;;;;;;9.30;50.83;97392.12;218123;1277;22547;-67
2022/02/16 15:18:39;;;;;;;;;;;;;;;9.28;49.87;97397.05;218086;1277;22571;-68
2022/02/16 15:23:43;;;;;;;;;;;;;;;9.22;49.71;97400.04;218243;1277;22606;-68
2022/02/16 15:28:45;;;;;;;;;;;;;;;9.16;49.79;97387.67;218111;1277;22931;-68
2022/02/16 15:33:51;;;;;;;;;;;;;;;9.09;49.52;97382.02;218193;1278;24283;-68
2022/02/16 15:39:15;;;;;;;;;;;;;;;9.03;49.77;97374.20;217969;1277;22788;-68
2022/02/16 15:44:19;;;;;;;;;;;;;;;8.99;50.06;97364.77;218282;1278;25342;-68
2022/02/16 15:49:24;;;;;;;;;;;;;;;8.92;50.15;97366.23;218331;1277;22964;-67
2022/02/16 15:54:36;;;;;;;;;;;;;;;8.83;51.13;97359.68;218123;1277;23866;-68
2022/02/16 16:00:06;;;;;;;;;;;;;;;8.69;51.68;97351.83;218349;1278;22590;-68
2022/02/16 16:05:14;;;;;;;;;;;;;;;8.56;52.02;97346.39;218734;1278;22705;-69
2022/02/16 16:10:29;;;;;;;;;;;;;;;8.43;52.46;97331.02;218281;1278;22551;-68
2022/02/16 16:15:54;;;;;;;;;;;;;;;8.32;53.14;97326.77;218279;1278;23094;-68
2022/02/16 16:20:56;;;;;;;;;;;;;;;8.28;53.52;97338.42;218261;1278;25316;-68
2022/02/16 16:26:02;;;;;;;;;;;;;;;8.25;53.74;97345.69;218209;1278;22573;-68
2022/02/16 16:31:17;;;;;;;;;;;;;;;;;;;;;
2022/02/16 16:37:02;;;;;;;;;;;;;;;8.24;53.94;97344.11;218320;1277;22552;-68
2022/02/16 16:42:03;;;;;;;;;;;;;;;8.27;54.04;97350.07;218251;1279;22528;-68
2022/02/16 16:47:21;;;;;;;;;;;;;;;8.31;54.33;97351.15;218097;1279;25481;-67
2022/02/16 16:52:29;;;;;;;;;;;;;;;8.31;54.39;97338.48;218377;1279;22947;-68
2022/02/16 16:57:41;;;;;;;;;;;;;;;8.33;54.75;97333.33;218409;1277;24362;-67
2022/02/16 17:03:04;;;;;;;;;;;;;;;8.33;55.08;97338.85;218441;1279;22561;-68
2022/02/16 17:08:32;;;;;;;;;;;;;;;8.37;55.37;97341.26;218333;1278;22518;-69
2022/02/16 17:13:57;;;;;;;;;;;;;;;8.38;55.41;97318.75;218280;1278;22595;-67
2022/02/16 17:19:02;;;;;;;;;;;;;;;8.38;55.76;97316.11;218500;1278;22535;-67
2022/02/16 17:24:08;;;;;;;;;;;;;;;8.37;55.90;97308.77;218474;1279;22573;-68
2022/02/16 17:29:11;;;;;;;;;;;;;;;8.37;56.29;97296.48;218461;1278;22704;-69
2022/02/16 17:34:23;;;;;;;;;;;;;;;8.35;56.46;97290.05;218368;1279;22587;-68
2022/02/16 17:39:26;;;;;;;;;;;;;;;8.34;56.75;97292.40;218645;1278;22564;-68
2022/02/16 17:45:16;;;;;;;;;;;;;;;8.40;57.07;97308.73;218325;1277;22761;-68
2022/02/16 17:49:58;;;;;;;;;;;;;;;8.45;57.59;97297.01;218411;1278;22531;-67
2022/02/16 17:55:05;;;;;;;;;;;;;;;8.47;57.75;97317.87;218360;1279;22531;-68
2022/02/16 18:00:30;;;;;;;;;;;;;;;8.49;58.34;97341.52;218539;1278;22617;-69
2022/02/16 18:05:46;;;;;;;;;;;;;;;8.46;59.14;97335.94;218064;1281;22658;-68
2022/02/16 18:10:58;;;;;;;;;;;;;;;8.41;59.95;97328.14;218356;1279;22949;-70
2022/02/16 18:16:03;;;;;;;;;;;;;;;8.35;60.47;97324.89;218576;1277;25368;-68
2022/02/16 18:21:07;;;;;;;;;;;;;;;8.30;60.43;97314.23;218542;1279;22714;-68
2022/02/16 18:26:09;;;;;;;;;;;;;;;8.30;60.40;97335.02;218501;1278;24945;-68
2022/02/16 18:31:11;;;;;;;;;;;;;;;8.30;60.47;97334.41;218578;1278;24316;-68
2022/02/16 18:36:14;;;;;;;;;;;;;;;8.30;60.41;97337.99;218402;1279;25396;-69
2022/02/16 18:41:39;;;;;;;;;;;;;;;8.31;60.71;97340.09;218696;1278;22536;-68
2022/02/16 18:46:44;;;;;;;;;;;;;;;8.29;61.13;97341.70;218691;1277;22553;-68
2022/02/16 18:51:47;;;;;;;;;;;;;;;8.27;61.39;97336.00;218447;1278;24321;-68
2022/02/16 18:57:06;;;;;;;;;;;;;;;8.22;61.81;97327.20;218412;1278;25417;-68
2022/02/16 19:02:11;;;;;;;;;;;;;;;8.16;62.25;97334.95;218284;1278;22550;-69
2022/02/16 19:07:14;;;;;;;;;;;;;;;8.09;63.03;97349.64;218387;1279;22589;-68
2022/02/16 19:12:28;;;;;;;;;;;;;;;8.07;63.50;97363.77;218160;1278;24269;-68
2022/02/16 19:17:45;;;;;;;;;;;;;;;8.04;63.77;97372.42;218567;1279;22482;-68
2022/02/16 19:22:49;;;;;;;;;;;;;;;8.00;64.22;97353.48;218496;1278;23010;-68
2022/02/16 19:28:04;;;;;;;;;;;;;;;7.95;64.46;97325.98;218143;1278;24267;-68
2022/02/16 19:33:06;;;;;;;;;;;;;;;7.89;65.25;97296.48;218384;1279;22711;-68
2022/02/16 19:38:20;;;;;;;;;;;;;;;7.83;65.78;97281.28;218323;1278;24378;-69
2022/02/16 19:43:22;;;;;;;;;;;;;;;7.78;65.67;97282.93;218353;1277;22564;-70
2022/02/16 19:48:27;;;;;;;;;;;;;;;7.75;65.95;97276.81;218138;1279;22598;-67
2022/02/16 19:53:34;;;;;;;;;;;;;;;7.72;65.97;97263.55;218115;1279;25266;-68
2022/02/16 19:58:36;;;;;;;;;;;;;;;7.71;66.17;97250.83;218357;1278;22752;-68
2022/02/16 20:03:41;;;;;;;;;;;;;;;7.70;66.37;97245.34;218261;1278;22556;-68
2022/02/16 20:08:52;;;;;;;;;;;;;;;7.66;66.25;97235.61;218373;1278;24110;-68
2022/02/16 20:14:37;;;;;;;;;;;;;;;7.59;66.89;97222.48;218461;1279;22535;-67
2022/02/16 20:19:41;;;;;;;;;;;;;;;7.48;67.32;97215.98;218560;1278;24213;-68
2022/02/16 20:24:55;;;;;;;;;;;;;;;7.43;68.00;97222.54;218235;1279;25148;-68
2022/02/16 20:30:02;;;;;;;;;;;;;;;7.43;68.35;97205.02;218364;1278;23874;-68
2022/02/16 20:35:08;;;;;;;;;;;;;;;7.42;68.52;97208.09;218338;1279;26080;-69
2022/02/16 20:40:10;;;;;;;;;;;;;;;7.40;68.84;97226.85;218286;1279;22570;-68
2022/02/16 20:45:12;;;;;;;;;;;;;;;7.41;68.86;97220.13;218385;1279;25462;-68
2022/02/16 20:50:15;;;;;;;;;;;;;;;7.42;69.08;97202.27;218064;1278;22627;-68
2022/02/16 20:55:26;;;;;;;;;;;;;;;7.40;69.42;97183.52;218296;1278;22570;-68
2022/02/16 21:00:51;;;;;;;;;;;;;;;7.37;69.63;97173.69;218304;1280;25374;-69
2022/02/16 21:06:06;;;;;;;;;;;;;;;7.34;69.83;97167.42;218335;1279;22618;-68
2022/02/16 21:11:11;;;;;;;;;;;;;;;7.35;70.01;97166.71;218280;1278;22567;-68
2022/02/16 21:16:19;;;;;;;;;;;;;;;7.37;69.89;97156.92;218377;1278;24321;-68
2022/02/16 21:21:37;;;;;;;;;;;;;;;7.38;69.82;97143.13;218434;1278;22558;-67
2022/02/16 21:26:42;;;;;;;;;;;;;;;7.43;69.91;97137.34;218423;1278;22573;-68
2022/02/16 21:31:44;;;;;;;;;;;;;;;7.47;69.68;97121.31;218309;1279;22710;-68
2022/02/16 21:36:59;;;;;;;;;;;;;;;7.51;69.88;97105.98;218279;1279;25355;-68
2022/02/16 21:42:21;;;;;;;;;;;;;;;7.51;69.81;97105.22;218320;1279;25335;-68
2022/02/16 21:47:52;;;;;;;;;;;;;;;7.51;69.68;97081.45;218227;1278;22695;-68
2022/02/16 21:52:54;;;;;;;;;;;;;;;7.55;69.80;97063.07;218025;1278;25493;-67
2022/02/16 21:58:07;;;;;;;;;;;;;;;;;;;;;
2022/02/16 22:03:10;;;;;;;;;;;;;;;7.60;70.08;97063.55;218521;1278;22710;-68
2022/02/16 22:08:20;;;;;;;;;;;;;;;7.66;69.99;97058.23;218343;1278;22576;-68
2022/02/16 22:13:27;;;;;;;;;;;;;;;7.71;69.97;97037.76;218227;1278;24237;-68
2022/02/16 22:18:33;;;;;;;;;;;;;;;7.74;69.87;97031.71;218525;1277;22619;-68
2022/02/16 22:23:51;;;;;;;;;;;;;;;7.80;70.11;97021.11;218328;1279;22581;-68
2022/02/16 22:28:53;;;;;;;;;;;;;;;7.85;69.67;96990.77;218355;1278;22586;-68
2022/02/16 22:34:44;;;;;;;;;;;;;;;7.89;69.84;96966.73;218372;1278;23326;-69
2022/02/16 22:40:09;;;;;;;;;;;;;;;7.90;70.04;96968.60;218281;1278;22581;-68
2022/02/16 22:45:32;;;;;;;;;;;;;;;;;;;;;
2022/02/16 22:50:44;;;;;;;;;;;;;;;7.93;70.12;96915.23;218300;1278;22576;-67
2022/02/16 22:56:03;;;;;;;;;;;;;;;7.91;70.41;96888.63;218356;1277;22564;-68
2022/02/16 23:01:18;;;;;;;;;;;;;;;7.86;70.80;96876.29;218209;1278;24276;-68
2022/02/16 23:11:53;;;;;;;;;;;;;;;7.81;71.41;96883.06;218235;1278;547488;-67
2022/02/16 23:16:55;;;;;;;;;;;;;;;7.77;71.77;96882.42;218282;1280;22564;-68
2022/02/16 23:21:57;;;;;;;;;;;;;;;7.79;72.27;96880.76;218455;1278;22532;-68
2022/02/16 23:27:02;;;;;;;;;;;;;;;7.80;72.53;96875.11;218257;1278;24402;-67
2022/02/16 23:32:05;;;;;;;;;;;;;;;7.81;72.50;96845.91;218317;1278;24353;-67
2022/02/16 23:37:10;;;;;;;;;;;;;;;7.83;72.59;96816.73;218489;1278;26512;-68
2022/02/16 23:42:12;;;;;;;;;;;;;;;7.86;72.36;96762.69;218429;1278;24244;-67
2022/02/16 23:47:19;;;;;;;;;;;;;;;7.83;72.33;96748.49;218476;1277;25428;-68
2022/02/16 23:52:23;;;;;;;;;;;;;;;7.84;72.86;96732.15;218486;1281;22617;-68
2022/02/16 23:57:29;;;;;;;;;;;;;;;7.90;72.71;96724.23;218457;1277;25416;-68
